sensor_id;sensor_type;location;lat;lon;timestamp;temperature;humidity
26954;DHT22;14508;50.924;11.600;2023-03-01T00:01:17;-2.50;99.90
26954;DHT22;14508;50.924;11.600;2023-03-01T00:03:45;-2.50;99.90
26954;DHT22;14508;50.924;11.600;2023-03-01T00:06:13;-2.50;99.90
26954;DHT22;14508;50.924;11.600;2023-03-01T00:08:42;-2.40;99.90
26954;DHT22;14508;50.924;11.600;2023-03-01T00:11:13;-2.40;99.90
26954;DHT22;14508;50.924;11.600;2023-03-01T00:13:42;-2.40;99.90
26954;DHT22;14508;50.924;11.600;2023-03-01T00:16:12;-2.40;99.90
26954;DHT22;14508;50.924;11.600;2023-03-01T00:18:42;-2.40;99.90
26954;DHT22;14508;50.924;11.600;2023-03-01T00:21:10;-2.40;99.90
26954;DHT22;14508;50.924;11.600;2023-03-01T00:23:39;-2.40;99.90
26954;DHT22;14508;50.924;11.600;2023-03-01T00:26:10;-2.40;99.90
26954;DHT22;14508;50.924;11.600;2023-03-01T00:28:40;-2.50;99.90
26954;DHT22;14508;50.924;11.600;2023-03-01T00:31:09;-2.50;99.90
26954;DHT22;14508;50.924;11.600;2023-03-01T00:33:38;-2.60;99.90
26954;DHT22;14508;50.924;11.600;2023-03-01T00:36:07;-2.60;99.90
26954;DHT22;14508;50.924;11.600;2023-03-01T00:38:35;-2.70;99.90
26954;DHT22;14508;50.924;11.600;2023-03-01T00:41:04;-2.70;99.90
26954;DHT22;14508;50.924;11.600;2023-03-01T00:43:34;-2.70;99.90
26954;DHT22;14508;50.924;11.600;2023-03-01T00:46:04;-2.70;99.90
26954;DHT22;14508;50.924;11.600;2023-03-01T00:48:32;-2.70;99.90
26954;DHT22;14508;50.924;11.600;2023-03-01T00:51:05;-2.70;99.90
26954;DHT22;14508;50.924;11.600;2023-03-01T00:53:33;-2.60;99.90
26954;DHT22;14508;50.924;11.600;2023-03-01T00:56:02;-2.60;99.90
26954;DHT22;14508;50.924;11.600;2023-03-01T00:58:30;-2.50;99.90
26954;DHT22;14508;50.924;11.600;2023-03-01T01:00:59;-2.50;99.90
26954;DHT22;14508;50.924;11.600;2023-03-01T01:03:27;-2.50;99.90
26954;DHT22;14508;50.924;11.600;2023-03-01T01:05:55;-2.50;99.90
26954;DHT22;14508;50.924;11.600;2023-03-01T01:08:23;-2.50;99.90
26954;DHT22;14508;50.924;11.600;2023-03-01T01:10:51;-2.40;99.90
26954;DHT22;14508;50.924;11.600;2023-03-01T01:13:19;-2.40;99.90
26954;DHT22;14508;50.924;11.600;2023-03-01T01:15:47;-2.30;99.90
26954;DHT22;14508;50.924;11.600;2023-03-01T01:18:16;-2.30;99.90
26954;DHT22;14508;50.924;11.600;2023-03-01T01:20:44;-2.20;99.90
26954;DHT22;14508;50.924;11.600;2023-03-01T01:23:12;-2.20;99.90
26954;DHT22;14508;50.924;11.600;2023-03-01T01:25:40;-2.30;99.90
26954;DHT22;14508;50.924;11.600;2023-03-01T01:28:08;-2.30;99.90
26954;DHT22;14508;50.924;11.600;2023-03-01T01:30:36;-2.30;99.90
26954;DHT22;14508;50.924;11.600;2023-03-01T01:33:03;-2.40;99.90
26954;DHT22;14508;50.924;11.600;2023-03-01T01:35:33;-2.50;99.90
26954;DHT22;14508;50.924;11.600;2023-03-01T01:38:00;-2.50;99.90
26954;DHT22;14508;50.924;11.600;2023-03-01T01:40:28;-2.60;99.90
26954;DHT22;14508;50.924;11.600;2023-03-01T01:42:56;-2.70;99.90
26954;DHT22;14508;50.924;11.600;2023-03-01T01:45:30;-2.70;99.90
26954;DHT22;14508;50.924;11.600;2023-03-01T01:48:02;-2.80;99.90
26954;DHT22;14508;50.924;11.600;2023-03-01T01:50:33;-2.90;99.90
26954;DHT22;14508;50.924;11.600;2023-03-01T01:53:08;-3.00;99.90
26954;DHT22;14508;50.924;11.600;2023-03-01T01:55:37;-3.10;99.90
26954;DHT22;14508;50.924;11.600;2023-03-01T01:58:09;-3.10;99.90
26954;DHT22;14508;50.924;11.600;2023-03-01T02:00:38;-3.20;99.90
26954;DHT22;14508;50.924;11.600;2023-03-01T02:03:09;-3.20;99.90
26954;DHT22;14508;50.924;11.600;2023-03-01T02:05:44;-3.20;99.90
26954;DHT22;14508;50.924;11.600;2023-03-01T02:08:23;-3.20;99.90
26954;DHT22;14508;50.924;11.600;2023-03-01T02:10:53;-3.20;99.90
26954;DHT22;14508;50.924;11.600;2023-03-01T02:13:22;-3.20;99.90
26954;DHT22;14508;50.924;11.600;2023-03-01T02:15:50;-3.20;99.90
26954;DHT22;14508;50.924;11.600;2023-03-01T02:18:21;-3.20;99.90
26954;DHT22;14508;50.924;11.600;2023-03-01T02:21:00;-3.20;99.90
26954;DHT22;14508;50.924;11.600;2023-03-01T02:23:33;-3.20;99.90
26954;DHT22;14508;50.924;11.600;2023-03-01T02:26:06;-3.20;99.90
26954;DHT22;14508;50.924;11.600;2023-03-01T02:28:37;-3.30;99.90
26954;DHT22;14508;50.924;11.600;2023-03-01T02:31:08;-3.30;99.90
26954;DHT22;14508;50.924;11.600;2023-03-01T02:33:55;-3.40;99.90
26954;DHT22;14508;50.924;11.600;2023-03-01T02:36:26;-3.40;99.90
26954;DHT22;14508;50.924;11.600;2023-03-01T02:38:58;-3.50;99.90
26954;DHT22;14508;50.924;11.600;2023-03-01T02:41:28;-3.50;99.90
26954;DHT22;14508;50.924;11.600;2023-03-01T02:43:59;-3.50;99.90
26954;DHT22;14508;50.924;11.600;2023-03-01T02:46:28;-3.60;99.90
26954;DHT22;14508;50.924;11.600;2023-03-01T02:48:58;-3.60;99.90
26954;DHT22;14508;50.924;11.600;2023-03-01T02:51:45;-3.70;99.90
26954;DHT22;14508;50.924;11.600;2023-03-01T02:54:22;-3.70;99.90
26954;DHT22;14508;50.924;11.600;2023-03-01T02:56:52;-3.70;99.90
26954;DHT22;14508;50.924;11.600;2023-03-01T02:59:32;-3.70;99.90
26954;DHT22;14508;50.924;11.600;2023-03-01T03:02:01;-3.70;99.90
26954;DHT22;14508;50.924;11.600;2023-03-01T03:04:29;-3.70;99.90
26954;DHT22;14508;50.924;11.600;2023-03-01T03:06:57;-3.80;99.90
26954;DHT22;14508;50.924;11.600;2023-03-01T03:09:25;-3.90;99.90
26954;DHT22;14508;50.924;11.600;2023-03-01T03:11:55;-3.90;99.90
26954;DHT22;14508;50.924;11.600;2023-03-01T03:14:25;-3.90;99.90
26954;DHT22;14508;50.924;11.600;2023-03-01T03:16:53;-4.00;99.90
26954;DHT22;14508;50.924;11.600;2023-03-01T03:19:21;-4.00;99.90
26954;DHT22;14508;50.924;11.600;2023-03-01T03:21:49;-4.00;99.90
26954;DHT22;14508;50.924;11.600;2023-03-01T03:24:17;-4.00;99.90
26954;DHT22;14508;50.924;11.600;2023-03-01T03:26:45;-4.10;99.90
26954;DHT22;14508;50.924;11.600;2023-03-01T03:29:13;-4.00;99.90
26954;DHT22;14508;50.924;11.600;2023-03-01T03:31:42;-4.10;99.90
26954;DHT22;14508;50.924;11.600;2023-03-01T03:34:10;-4.10;99.90
26954;DHT22;14508;50.924;11.600;2023-03-01T03:36:44;-4.10;99.90
26954;DHT22;14508;50.924;11.600;2023-03-01T03:39:12;-4.10;99.90
26954;DHT22;14508;50.924;11.600;2023-03-01T03:41:40;-4.10;99.90
26954;DHT22;14508;50.924;11.600;2023-03-01T03:44:08;-4.10;99.90
26954;DHT22;14508;50.924;11.600;2023-03-01T03:46:36;-4.00;99.90
26954;DHT22;14508;50.924;11.600;2023-03-01T03:49:05;-4.00;99.90
26954;DHT22;14508;50.924;11.600;2023-03-01T03:51:33;-4.10;99.90
26954;DHT22;14508;50.924;11.600;2023-03-01T03:54:01;-4.10;99.90
26954;DHT22;14508;50.924;11.600;2023-03-01T03:56:29;-4.10;99.90
26954;DHT22;14508;50.924;11.600;2023-03-01T03:58:57;-4.10;99.90
26954;DHT22;14508;50.924;11.600;2023-03-01T04:01:25;-4.10;99.90
26954;DHT22;14508;50.924;11.600;2023-03-01T04:03:53;-4.10;99.90
26954;DHT22;14508;50.924;11.600;2023-03-01T04:06:23;-4.10;99.90
26954;DHT22;14508;50.924;11.600;2023-03-01T04:08:50;-4.10;99.90
26954;DHT22;14508;50.924;11.600;2023-03-01T04:11:25;-4.20;99.90
26954;DHT22;14508;50.924;11.600;2023-03-01T04:13:57;-4.20;99.90
26954;DHT22;14508;50.924;11.600;2023-03-01T04:16:25;-4.30;99.90
26954;DHT22;14508;50.924;11.600;2023-03-01T04:18:53;-4.30;99.90
26954;DHT22;14508;50.924;11.600;2023-03-01T04:21:23;-4.40;99.90
26954;DHT22;14508;50.924;11.600;2023-03-01T04:23:51;-4.40;99.90
26954;DHT22;14508;50.924;11.600;2023-03-01T04:26:20;-4.40;99.90
26954;DHT22;14508;50.924;11.600;2023-03-01T04:28:48;-4.40;99.90
26954;DHT22;14508;50.924;11.600;2023-03-01T04:31:18;-4.40;99.90
26954;DHT22;14508;50.924;11.600;2023-03-01T04:33:49;-4.40;99.90
26954;DHT22;14508;50.924;11.600;2023-03-01T04:36:20;-4.40;99.90
26954;DHT22;14508;50.924;11.600;2023-03-01T04:38:50;-4.40;99.90
26954;DHT22;14508;50.924;11.600;2023-03-01T04:41:20;-4.40;99.90
26954;DHT22;14508;50.924;11.600;2023-03-01T04:43:48;-4.40;99.90
26954;DHT22;14508;50.924;11.600;2023-03-01T04:46:19;-4.40;99.90
26954;DHT22;14508;50.924;11.600;2023-03-01T04:48:48;-4.40;99.90
26954;DHT22;14508;50.924;11.600;2023-03-01T04:51:16;-4.30;99.90
26954;DHT22;14508;50.924;11.600;2023-03-01T04:53:44;-4.30;99.90
26954;DHT22;14508;50.924;11.600;2023-03-01T04:56:14;-4.30;99.90
26954;DHT22;14508;50.924;11.600;2023-03-01T04:58:42;-4.30;99.90
26954;DHT22;14508;50.924;11.600;2023-03-01T05:01:10;-4.30;99.90
26954;DHT22;14508;50.924;11.600;2023-03-01T05:03:43;-4.30;99.90
26954;DHT22;14508;50.924;11.600;2023-03-01T05:06:12;-4.30;99.90
26954;DHT22;14508;50.924;11.600;2023-03-01T05:08:41;-4.30;99.90
26954;DHT22;14508;50.924;11.600;2023-03-01T05:11:10;-4.30;99.90
26954;DHT22;14508;50.924;11.600;2023-03-01T05:13:40;-4.40;99.90
26954;DHT22;14508;50.924;11.600;2023-03-01T05:16:09;-4.40;99.90
26954;DHT22;14508;50.924;11.600;2023-03-01T05:18:39;-4.40;99.90
26954;DHT22;14508;50.924;11.600;2023-03-01T05:21:09;-4.40;99.90
26954;DHT22;14508;50.924;11.600;2023-03-01T05:23:38;-4.50;99.90
26954;DHT22;14508;50.924;11.600;2023-03-01T05:26:07;-4.50;99.90
26954;DHT22;14508;50.924;11.600;2023-03-01T05:28:54;-4.50;99.90
26954;DHT22;14508;50.924;11.600;2023-03-01T05:31:25;-4.50;99.90
26954;DHT22;14508;50.924;11.600;2023-03-01T05:33:53;-4.50;99.90
26954;DHT22;14508;50.924;11.600;2023-03-01T05:36:21;-4.50;99.90
26954;DHT22;14508;50.924;11.600;2023-03-01T05:38:49;-4.50;99.90
26954;DHT22;14508;50.924;11.600;2023-03-01T05:41:16;-4.60;99.90
26954;DHT22;14508;50.924;11.600;2023-03-01T05:43:44;-4.50;99.90
26954;DHT22;14508;50.924;11.600;2023-03-01T05:46:14;-4.50;99.90
26954;DHT22;14508;50.924;11.600;2023-03-01T05:48:42;-4.50;99.90
26954;DHT22;14508;50.924;11.600;2023-03-01T05:51:10;-4.50;99.90
26954;DHT22;14508;50.924;11.600;2023-03-01T05:53:53;-4.50;99.90
26954;DHT22;14508;50.924;11.600;2023-03-01T05:56:21;-4.60;99.90
26954;DHT22;14508;50.924;11.600;2023-03-01T05:58:49;-4.60;99.90
26954;DHT22;14508;50.924;11.600;2023-03-01T06:01:18;-4.60;99.90
26954;DHT22;14508;50.924;11.600;2023-03-01T06:03:46;-4.60;99.90
26954;DHT22;14508;50.924;11.600;2023-03-01T06:06:14;-4.50;99.90
26954;DHT22;14508;50.924;11.600;2023-03-01T06:08:42;-4.50;99.90
26954;DHT22;14508;50.924;11.600;2023-03-01T06:11:10;-4.50;99.90
26954;DHT22;14508;50.924;11.600;2023-03-01T06:13:38;-4.50;99.90
26954;DHT22;14508;50.924;11.600;2023-03-01T06:16:06;-4.50;99.90
26954;DHT22;14508;50.924;11.600;2023-03-01T06:18:36;-4.50;99.90
26954;DHT22;14508;50.924;11.600;2023-03-01T06:21:05;-4.50;99.90
26954;DHT22;14508;50.924;11.600;2023-03-01T06:23:33;-4.50;99.90
26954;DHT22;14508;50.924;11.600;2023-03-01T06:26:05;-4.50;99.90
26954;DHT22;14508;50.924;11.600;2023-03-01T06:28:33;-4.50;99.90
26954;DHT22;14508;50.924;11.600;2023-03-01T06:31:02;-4.40;99.90
26954;DHT22;14508;50.924;11.600;2023-03-01T06:33:30;-4.40;99.90
26954;DHT22;14508;50.924;11.600;2023-03-01T06:35:59;-4.30;99.90
26954;DHT22;14508;50.924;11.600;2023-03-01T06:38:27;-4.40;99.90
26954;DHT22;14508;50.924;11.600;2023-03-01T06:40:56;-4.40;99.90
26954;DHT22;14508;50.924;11.600;2023-03-01T06:43:24;-4.40;99.90
26954;DHT22;14508;50.924;11.600;2023-03-01T06:45:52;-4.30;99.90
26954;DHT22;14508;50.924;11.600;2023-03-01T06:48:20;-4.30;99.90
26954;DHT22;14508;50.924;11.600;2023-03-01T06:50:48;-4.20;99.90
26954;DHT22;14508;50.924;11.600;2023-03-01T06:53:17;-4.10;99.90
26954;DHT22;14508;50.924;11.600;2023-03-01T06:55:45;-4.00;99.90
26954;DHT22;14508;50.924;11.600;2023-03-01T06:58:13;-3.90;99.90
26954;DHT22;14508;50.924;11.600;2023-03-01T07:00:40;-3.80;99.90
26954;DHT22;14508;50.924;11.600;2023-03-01T07:03:10;-3.70;99.90
26954;DHT22;14508;50.924;11.600;2023-03-01T07:05:38;-3.60;99.90
26954;DHT22;14508;50.924;11.600;2023-03-01T07:08:06;-3.50;99.90
26954;DHT22;14508;50.924;11.600;2023-03-01T07:10:35;-3.40;99.90
26954;DHT22;14508;50.924;11.600;2023-03-01T07:13:03;-3.30;99.90
26954;DHT22;14508;50.924;11.600;2023-03-01T07:15:33;-3.20;99.90
26954;DHT22;14508;50.924;11.600;2023-03-01T07:18:01;-3.20;99.90
26954;DHT22;14508;50.924;11.600;2023-03-01T07:20:29;-3.10;99.90
26954;DHT22;14508;50.924;11.600;2023-03-01T07:22:57;-3.00;99.90
26954;DHT22;14508;50.924;11.600;2023-03-01T07:25:25;-2.80;99.90
26954;DHT22;14508;50.924;11.600;2023-03-01T07:27:54;-2.60;99.90
26954;DHT22;14508;50.924;11.600;2023-03-01T07:30:22;-2.50;99.90
26954;DHT22;14508;50.924;11.600;2023-03-01T07:32:53;-2.50;99.90
26954;DHT22;14508;50.924;11.600;2023-03-01T07:35:21;-2.40;99.90
26954;DHT22;14508;50.924;11.600;2023-03-01T07:37:50;-2.40;99.90
26954;DHT22;14508;50.924;11.600;2023-03-01T07:40:18;-2.30;99.90
26954;DHT22;14508;50.924;11.600;2023-03-01T07:42:46;-2.20;99.90
26954;DHT22;14508;50.924;11.600;2023-03-01T07:45:15;-2.00;99.90
26954;DHT22;14508;50.924;11.600;2023-03-01T07:47:43;-1.80;99.90
26954;DHT22;14508;50.924;11.600;2023-03-01T07:50:11;-1.70;99.90
26954;DHT22;14508;50.924;11.600;2023-03-01T07:52:40;-1.60;99.90
26954;DHT22;14508;50.924;11.600;2023-03-01T07:55:08;-1.50;99.90
26954;DHT22;14508;50.924;11.600;2023-03-01T07:57:36;-1.40;99.90
26954;DHT22;14508;50.924;11.600;2023-03-01T08:00:09;-1.30;99.90
26954;DHT22;14508;50.924;11.600;2023-03-01T08:02:40;-1.10;99.90
26954;DHT22;14508;50.924;11.600;2023-03-01T08:05:09;-1.00;99.90
26954;DHT22;14508;50.924;11.600;2023-03-01T08:07:37;-1.00;99.90
26954;DHT22;14508;50.924;11.600;2023-03-01T08:10:05;-1.00;99.90
26954;DHT22;14508;50.924;11.600;2023-03-01T08:12:34;-1.00;99.90
26954;DHT22;14508;50.924;11.600;2023-03-01T08:15:02;-1.00;99.90
26954;DHT22;14508;50.924;11.600;2023-03-01T08:17:30;-1.00;99.90
26954;DHT22;14508;50.924;11.600;2023-03-01T08:19:59;-0.80;99.90
26954;DHT22;14508;50.924;11.600;2023-03-01T08:22:27;-0.80;99.90
26954;DHT22;14508;50.924;11.600;2023-03-01T08:24:55;-0.70;99.90
26954;DHT22;14508;50.924;11.600;2023-03-01T08:27:23;-0.70;99.90
26954;DHT22;14508;50.924;11.600;2023-03-01T08:29:51;-0.60;99.90
26954;DHT22;14508;50.924;11.600;2023-03-01T08:32:19;-0.50;99.90
26954;DHT22;14508;50.924;11.600;2023-03-01T08:34:47;-0.40;99.90
26954;DHT22;14508;50.924;11.600;2023-03-01T08:37:16;-0.40;99.90
26954;DHT22;14508;50.924;11.600;2023-03-01T08:39:44;-0.30;99.90
26954;DHT22;14508;50.924;11.600;2023-03-01T08:42:12;-0.30;99.90
26954;DHT22;14508;50.924;11.600;2023-03-01T08:44:39;-0.30;99.90
26954;DHT22;14508;50.924;11.600;2023-03-01T08:47:07;-0.20;99.90
26954;DHT22;14508;50.924;11.600;2023-03-01T08:49:35;-0.10;99.90
26954;DHT22;14508;50.924;11.600;2023-03-01T08:52:03;0.00;99.90
26954;DHT22;14508;50.924;11.600;2023-03-01T08:54:32;0.10;99.90
26954;DHT22;14508;50.924;11.600;2023-03-01T08:57:01;0.20;99.90
26954;DHT22;14508;50.924;11.600;2023-03-01T08:59:29;0.30;99.90
26954;DHT22;14508;50.924;11.600;2023-03-01T09:02:02;0.40;99.90
26954;DHT22;14508;50.924;11.600;2023-03-01T09:04:30;0.60;99.90
26954;DHT22;14508;50.924;11.600;2023-03-01T09:06:57;0.70;99.90
26954;DHT22;14508;50.924;11.600;2023-03-01T09:09:25;0.70;99.90
26954;DHT22;14508;50.924;11.600;2023-03-01T09:11:54;0.90;99.90
26954;DHT22;14508;50.924;11.600;2023-03-01T09:14:22;1.00;99.90
26954;DHT22;14508;50.924;11.600;2023-03-01T09:16:50;1.10;99.90
26954;DHT22;14508;50.924;11.600;2023-03-01T09:19:18;1.20;99.90
26954;DHT22;14508;50.924;11.600;2023-03-01T09:21:46;1.30;99.90
26954;DHT22;14508;50.924;11.600;2023-03-01T09:24:21;1.40;99.90
26954;DHT22;14508;50.924;11.600;2023-03-01T09:26:50;1.50;99.90
26954;DHT22;14508;50.924;11.600;2023-03-01T09:29:21;1.60;99.90
26954;DHT22;14508;50.924;11.600;2023-03-01T09:31:49;1.80;99.90
26954;DHT22;14508;50.924;11.600;2023-03-01T09:34:17;2.00;99.90
26954;DHT22;14508;50.924;11.600;2023-03-01T09:36:50;2.00;99.90
26954;DHT22;14508;50.924;11.600;2023-03-01T09:39:18;2.20;99.90
26954;DHT22;14508;50.924;11.600;2023-03-01T09:41:50;2.30;99.90
26954;DHT22;14508;50.924;11.600;2023-03-01T09:44:29;2.40;99.90
26954;DHT22;14508;50.924;11.600;2023-03-01T09:46:59;2.50;99.90
26954;DHT22;14508;50.924;11.600;2023-03-01T09:49:28;2.60;99.90
26954;DHT22;14508;50.924;11.600;2023-03-01T09:52:00;2.80;99.90
26954;DHT22;14508;50.924;11.600;2023-03-01T09:54:31;3.10;95.50
26954;DHT22;14508;50.924;11.600;2023-03-01T09:57:11;3.20;93.60
26954;DHT22;14508;50.924;11.600;2023-03-01T09:59:51;3.30;92.50
26954;DHT22;14508;50.924;11.600;2023-03-01T10:02:27;3.40;90.30
26954;DHT22;14508;50.924;11.600;2023-03-01T10:05:05;3.40;90.00
26954;DHT22;14508;50.924;11.600;2023-03-01T10:07:44;3.50;87.80
26954;DHT22;14508;50.924;11.600;2023-03-01T10:10:23;3.50;86.60
26954;DHT22;14508;50.924;11.600;2023-03-01T10:12:53;3.70;84.70
26954;DHT22;14508;50.924;11.600;2023-03-01T10:15:31;3.80;84.40
26954;DHT22;14508;50.924;11.600;2023-03-01T10:18:04;3.90;84.20
26954;DHT22;14508;50.924;11.600;2023-03-01T10:20:43;4.00;80.10
26954;DHT22;14508;50.924;11.600;2023-03-01T10:23:14;4.10;77.80
26954;DHT22;14508;50.924;11.600;2023-03-01T10:25:53;4.10;76.60
26954;DHT22;14508;50.924;11.600;2023-03-01T10:28:27;4.20;74.20
26954;DHT22;14508;50.924;11.600;2023-03-01T10:30:59;4.20;73.00
26954;DHT22;14508;50.924;11.600;2023-03-01T10:33:30;4.10;74.00
26954;DHT22;14508;50.924;11.600;2023-03-01T10:35:58;4.10;72.90
26954;DHT22;14508;50.924;11.600;2023-03-01T10:38:30;4.10;73.20
26954;DHT22;14508;50.924;11.600;2023-03-01T10:41:00;4.20;73.80
26954;DHT22;14508;50.924;11.600;2023-03-01T10:43:43;4.30;75.20
26954;DHT22;14508;50.924;11.600;2023-03-01T10:46:24;4.20;72.90
26954;DHT22;14508;50.924;11.600;2023-03-01T10:49:07;4.30;74.50
26954;DHT22;14508;50.924;11.600;2023-03-01T10:51:35;4.40;74.30
26954;DHT22;14508;50.924;11.600;2023-03-01T10:54:04;4.60;73.40
26954;DHT22;14508;50.924;11.600;2023-03-01T10:56:46;4.70;73.60
26954;DHT22;14508;50.924;11.600;2023-03-01T10:59:23;4.80;71.00
26954;DHT22;14508;50.924;11.600;2023-03-01T11:02:17;4.90;69.80
26954;DHT22;14508;50.924;11.600;2023-03-01T11:05:00;4.90;68.90
26954;DHT22;14508;50.924;11.600;2023-03-01T11:07:29;5.00;68.20
26954;DHT22;14508;50.924;11.600;2023-03-01T11:09:57;5.00;67.80
26954;DHT22;14508;50.924;11.600;2023-03-01T11:12:25;5.00;68.40
26954;DHT22;14508;50.924;11.600;2023-03-01T11:14:56;5.10;66.60
26954;DHT22;14508;50.924;11.600;2023-03-01T11:17:28;5.10;66.70
26954;DHT22;14508;50.924;11.600;2023-03-01T11:20:14;5.10;65.60
26954;DHT22;14508;50.924;11.600;2023-03-01T11:22:47;5.10;64.00
26954;DHT22;14508;50.924;11.600;2023-03-01T11:25:18;5.10;63.90
26954;DHT22;14508;50.924;11.600;2023-03-01T11:27:47;5.10;64.40
26954;DHT22;14508;50.924;11.600;2023-03-01T11:30:19;5.20;65.20
26954;DHT22;14508;50.924;11.600;2023-03-01T11:32:58;5.20;64.30
26954;DHT22;14508;50.924;11.600;2023-03-01T11:35:29;5.30;64.00
26954;DHT22;14508;50.924;11.600;2023-03-01T11:38:12;5.40;63.50
26954;DHT22;14508;50.924;11.600;2023-03-01T11:40:46;5.40;63.80
26954;DHT22;14508;50.924;11.600;2023-03-01T11:43:20;5.30;62.20
26954;DHT22;14508;50.924;11.600;2023-03-01T11:46:02;5.20;63.10
26954;DHT22;14508;50.924;11.600;2023-03-01T11:48:52;5.20;64.20
26954;DHT22;14508;50.924;11.600;2023-03-01T11:51:38;5.30;64.80
26954;DHT22;14508;50.924;11.600;2023-03-01T11:54:25;5.40;64.90
26954;DHT22;14508;50.924;11.600;2023-03-01T11:56:57;5.50;63.80
26954;DHT22;14508;50.924;11.600;2023-03-01T11:59:59;5.50;63.60
26954;DHT22;14508;50.924;11.600;2023-03-01T12:02:43;5.60;64.00
26954;DHT22;14508;50.924;11.600;2023-03-01T12:05:24;5.70;64.80
26954;DHT22;14508;50.924;11.600;2023-03-01T12:08:04;5.70;64.10
26954;DHT22;14508;50.924;11.600;2023-03-01T12:10:38;5.80;64.90
26954;DHT22;14508;50.924;11.600;2023-03-01T12:13:27;5.80;64.70
26954;DHT22;14508;50.924;11.600;2023-03-01T12:16:17;5.90;64.00
26954;DHT22;14508;50.924;11.600;2023-03-01T12:19:15;5.90;64.60
26954;DHT22;14508;50.924;11.600;2023-03-01T12:22:07;5.90;63.80
26954;DHT22;14508;50.924;11.600;2023-03-01T12:25:07;5.90;64.50
26954;DHT22;14508;50.924;11.600;2023-03-01T12:27:59;5.90;64.20
26954;DHT22;14508;50.924;11.600;2023-03-01T12:30:42;6.00;63.90
26954;DHT22;14508;50.924;11.600;2023-03-01T12:33:22;6.00;64.00
26954;DHT22;14508;50.924;11.600;2023-03-01T12:36:11;6.10;63.80
26954;DHT22;14508;50.924;11.600;2023-03-01T12:38:49;6.10;63.00
26954;DHT22;14508;50.924;11.600;2023-03-01T12:41:32;6.00;60.90
26954;DHT22;14508;50.924;11.600;2023-03-01T12:44:12;5.90;62.20
26954;DHT22;14508;50.924;11.600;2023-03-01T12:46:56;6.00;62.60
26954;DHT22;14508;50.924;11.600;2023-03-01T12:49:32;6.00;63.00
26954;DHT22;14508;50.924;11.600;2023-03-01T12:52:07;5.90;61.50
26954;DHT22;14508;50.924;11.600;2023-03-01T12:54:38;5.90;62.60
26954;DHT22;14508;50.924;11.600;2023-03-01T12:57:15;5.90;63.20
26954;DHT22;14508;50.924;11.600;2023-03-01T12:59:55;5.90;63.70
26954;DHT22;14508;50.924;11.600;2023-03-01T13:02:33;6.00;64.00
26954;DHT22;14508;50.924;11.600;2023-03-01T13:05:19;6.00;64.40
26954;DHT22;14508;50.924;11.600;2023-03-01T13:07:57;6.10;63.20
26954;DHT22;14508;50.924;11.600;2023-03-01T13:10:31;6.10;61.80
26954;DHT22;14508;50.924;11.600;2023-03-01T13:13:12;6.00;61.40
26954;DHT22;14508;50.924;11.600;2023-03-01T13:15:40;6.00;61.20
26954;DHT22;14508;50.924;11.600;2023-03-01T13:18:30;5.90;61.60
26954;DHT22;14508;50.924;11.600;2023-03-01T13:21:00;6.00;61.30
26954;DHT22;14508;50.924;11.600;2023-03-01T13:23:31;6.00;60.00
26954;DHT22;14508;50.924;11.600;2023-03-01T13:26:13;6.00;58.70
26954;DHT22;14508;50.924;11.600;2023-03-01T13:28:51;5.90;58.10
26954;DHT22;14508;50.924;11.600;2023-03-01T13:34:56;5.90;57.90
26954;DHT22;14508;50.924;11.600;2023-03-01T13:37:27;6.00;57.70
26954;DHT22;14508;50.924;11.600;2023-03-01T13:40:02;6.00;57.40
26954;DHT22;14508;50.924;11.600;2023-03-01T13:42:42;6.10;57.20
26954;DHT22;14508;50.924;11.600;2023-03-01T13:45:34;6.00;57.30
26954;DHT22;14508;50.924;11.600;2023-03-01T13:48:09;6.00;57.90
26954;DHT22;14508;50.924;11.600;2023-03-01T13:50:45;6.10;58.20
26954;DHT22;14508;50.924;11.600;2023-03-01T13:53:17;6.20;57.50
26954;DHT22;14508;50.924;11.600;2023-03-01T13:55:48;6.20;57.20
26954;DHT22;14508;50.924;11.600;2023-03-01T13:58:24;6.20;57.50
26954;DHT22;14508;50.924;11.600;2023-03-01T14:00:58;6.20;57.10
26954;DHT22;14508;50.924;11.600;2023-03-01T14:03:27;6.20;57.20
26954;DHT22;14508;50.924;11.600;2023-03-01T14:06:05;6.20;57.20
26954;DHT22;14508;50.924;11.600;2023-03-01T14:08:42;6.20;56.60
26954;DHT22;14508;50.924;11.600;2023-03-01T14:14:37;6.20;57.20
26954;DHT22;14508;50.924;11.600;2023-03-01T14:20:14;6.20;56.00
26954;DHT22;14508;50.924;11.600;2023-03-01T14:22:46;6.20;56.50
26954;DHT22;14508;50.924;11.600;2023-03-01T14:25:25;6.10;56.30
26954;DHT22;14508;50.924;11.600;2023-03-01T14:27:59;6.10;56.40
26954;DHT22;14508;50.924;11.600;2023-03-01T14:30:44;6.10;56.10
26954;DHT22;14508;50.924;11.600;2023-03-01T14:33:20;6.00;56.00
26954;DHT22;14508;50.924;11.600;2023-03-01T14:35:59;6.00;55.70
26954;DHT22;14508;50.924;11.600;2023-03-01T14:38:32;6.00;55.60
26954;DHT22;14508;50.924;11.600;2023-03-01T14:41:03;6.00;55.20
26954;DHT22;14508;50.924;11.600;2023-03-01T14:43:33;6.00;55.20
26954;DHT22;14508;50.924;11.600;2023-03-01T14:46:02;6.00;55.60
26954;DHT22;14508;50.924;11.600;2023-03-01T14:48:31;6.10;56.00
26954;DHT22;14508;50.924;11.600;2023-03-01T14:50:59;6.00;55.50
26954;DHT22;14508;50.924;11.600;2023-03-01T14:53:28;6.00;55.40
26954;DHT22;14508;50.924;11.600;2023-03-01T14:56:14;6.00;55.30
26954;DHT22;14508;50.924;11.600;2023-03-01T14:58:57;6.00;55.00
26954;DHT22;14508;50.924;11.600;2023-03-01T15:01:28;6.00;55.40
26954;DHT22;14508;50.924;11.600;2023-03-01T15:03:56;6.00;55.30
26954;DHT22;14508;50.924;11.600;2023-03-01T15:06:24;6.00;55.60
26954;DHT22;14508;50.924;11.600;2023-03-01T15:08:53;6.00;55.20
26954;DHT22;14508;50.924;11.600;2023-03-01T15:11:27;6.00;55.50
26954;DHT22;14508;50.924;11.600;2023-03-01T15:13:55;6.00;55.90
26954;DHT22;14508;50.924;11.600;2023-03-01T15:16:24;6.00;56.00
26954;DHT22;14508;50.924;11.600;2023-03-01T15:18:55;6.00;56.20
26954;DHT22;14508;50.924;11.600;2023-03-01T15:21:26;6.00;56.50
26954;DHT22;14508;50.924;11.600;2023-03-01T15:23:57;6.00;56.80
26954;DHT22;14508;50.924;11.600;2023-03-01T15:26:29;6.00;57.00
26954;DHT22;14508;50.924;11.600;2023-03-01T15:28:59;6.00;57.00
26954;DHT22;14508;50.924;11.600;2023-03-01T15:31:28;5.90;57.30
26954;DHT22;14508;50.924;11.600;2023-03-01T15:34:22;5.90;57.40
26954;DHT22;14508;50.924;11.600;2023-03-01T15:36:51;5.90;57.40
26954;DHT22;14508;50.924;11.600;2023-03-01T15:39:37;5.90;57.60
26954;DHT22;14508;50.924;11.600;2023-03-01T15:42:07;5.90;57.80
26954;DHT22;14508;50.924;11.600;2023-03-01T15:44:38;5.80;58.00
26954;DHT22;14508;50.924;11.600;2023-03-01T15:47:26;5.80;58.50
26954;DHT22;14508;50.924;11.600;2023-03-01T15:49:59;5.70;57.70
26954;DHT22;14508;50.924;11.600;2023-03-01T15:52:30;5.70;57.50
26954;DHT22;14508;50.924;11.600;2023-03-01T15:55:05;5.60;57.40
26954;DHT22;14508;50.924;11.600;2023-03-01T15:57:33;5.60;57.00
26954;DHT22;14508;50.924;11.600;2023-03-01T16:00:01;5.60;57.00
26954;DHT22;14508;50.924;11.600;2023-03-01T16:02:38;5.50;57.00